sensor_id;sensor_type;location;lat;lon;timestamp;pressure;altitude;pressure_sealevel;temperature;humidity
12073;BME280;6098;49.004;8.372;2023-04-25T00:09:52;99796.92;;;10.24;78.72
12073;BME280;6098;49.004;8.372;2023-04-25T00:24:43;99799.62;;;10.14;79.04
12073;BME280;6098;49.004;8.372;2023-04-25T00:39:34;99802.20;;;10.16;77.78
12073;BME280;6098;49.004;8.372;2023-04-25T00:54:25;99788.95;;;10.16;77.91
12073;BME280;6098;49.004;8.372;2023-04-25T01:09:18;99768.38;;;10.21;77.24
12073;BME280;6098;49.004;8.372;2023-04-25T01:24:10;99775.10;;;10.19;78.16
12073;BME280;6098;49.004;8.372;2023-04-25T01:39:00;99776.76;;;10.22;78.12
12073;BME280;6098;49.004;8.372;2023-04-25T01:53:52;99767.23;;;10.27;76.92
12073;BME280;6098;49.004;8.372;2023-04-25T02:08:44;99777.73;;;10.29;77.31
12073;BME280;6098;49.004;8.372;2023-04-25T02:23:35;99776.78;;;10.21;77.14
12073;BME280;6098;49.004;8.372;2023-04-25T02:38:30;99758.05;;;10.25;80.26
12073;BME280;6098;49.004;8.372;2023-04-25T02:53:24;99747.65;;;10.21;80.83
12073;BME280;6098;49.004;8.372;2023-04-25T03:08:16;99743.20;;;10.03;81.05
12073;BME280;6098;49.004;8.372;2023-04-25T03:23:09;99746.58;;;10.05;80.49
12073;BME280;6098;49.004;8.372;2023-04-25T03:37:59;99732.53;;;10.04;79.89
12073;BME280;6098;49.004;8.372;2023-04-25T03:52:51;99738.25;;;10.04;79.93
12073;BME280;6098;49.004;8.372;2023-04-25T04:07:41;99750.25;;;10.03;80.31
12073;BME280;6098;49.004;8.372;2023-04-25T04:22:33;99733.84;;;10.04;80.56
12073;BME280;6098;49.004;8.372;2023-04-25T04:37:26;99739.09;;;10.05;80.57
12073;BME280;6098;49.004;8.372;2023-04-25T04:52:17;99745.77;;;10.04;80.43
12073;BME280;6098;49.004;8.372;2023-04-25T05:07:09;99747.02;;;10.06;81.67
12073;BME280;6098;49.004;8.372;2023-04-25T05:22:01;99764.13;;;10.08;81.14
12073;BME280;6098;49.004;8.372;2023-04-25T05:36:53;99768.20;;;10.16;80.22
12073;BME280;6098;49.004;8.372;2023-04-25T05:51:45;99776.58;;;10.25;79.59
12073;BME280;6098;49.004;8.372;2023-04-25T06:06:36;99788.67;;;10.31;79.60
12073;BME280;6098;49.004;8.372;2023-04-25T06:21:28;99801.77;;;10.34;80.51
12073;BME280;6098;49.004;8.372;2023-04-25T06:36:19;99804.83;;;10.26;82.48
12073;BME280;6098;49.004;8.372;2023-04-25T06:51:09;99812.46;;;10.22;86.71
12073;BME280;6098;49.004;8.372;2023-04-25T07:06:01;99810.94;;;10.18;86.89
12073;BME280;6098;49.004;8.372;2023-04-25T07:20:52;99827.28;;;10.17;86.81
12073;BME280;6098;49.004;8.372;2023-04-25T07:35:42;99839.22;;;10.16;87.35
12073;BME280;6098;49.004;8.372;2023-04-25T07:50:33;99855.23;;;10.14;86.98
12073;BME280;6098;49.004;8.372;2023-04-25T08:05:24;99882.73;;;10.01;87.38
12073;BME280;6098;49.004;8.372;2023-04-25T08:20:15;99909.28;;;10.09;90.58
12073;BME280;6098;49.004;8.372;2023-04-25T08:35:08;99926.52;;;10.19;90.26
12073;BME280;6098;49.004;8.372;2023-04-25T08:50:01;99944.16;;;10.20;90.75
12073;BME280;6098;49.004;8.372;2023-04-25T09:04:51;99960.03;;;10.09;94.20
12073;BME280;6098;49.004;8.372;2023-04-25T09:19:43;99979.77;;;9.92;94.64
12073;BME280;6098;49.004;8.372;2023-04-25T09:34:38;100011.32;;;9.75;97.38
12073;BME280;6098;49.004;8.372;2023-04-25T09:49:24;100041.73;;;9.44;96.33
12073;BME280;6098;49.004;8.372;2023-04-25T10:04:16;100066.63;;;9.16;94.68
12073;BME280;6098;49.004;8.372;2023-04-25T10:19:07;100077.59;;;9.28;96.05
12073;BME280;6098;49.004;8.372;2023-04-25T10:34:00;100092.56;;;9.41;94.28
12073;BME280;6098;49.004;8.372;2023-04-25T10:48:54;100101.97;;;9.59;95.87
12073;BME280;6098;49.004;8.372;2023-04-25T11:03:48;100112.88;;;9.62;93.63
12073;BME280;6098;49.004;8.372;2023-04-25T11:18:42;100122.63;;;9.61;97.95
12073;BME280;6098;49.004;8.372;2023-04-25T11:33:36;100126.89;;;9.65;98.06
12073;BME280;6098;49.004;8.372;2023-04-25T11:48:36;100152.03;;;9.42;89.39
12073;BME280;6098;49.004;8.372;2023-04-25T12:03:21;100166.13;;;9.31;91.04
12073;BME280;6098;49.004;8.372;2023-04-25T12:18:13;100166.83;;;9.58;93.50
12073;BME280;6098;49.004;8.372;2023-04-25T12:33:06;100152.25;;;10.15;89.93
12073;BME280;6098;49.004;8.372;2023-04-25T12:48:01;100167.17;;;10.70;87.22
12073;BME280;6098;49.004;8.372;2023-04-25T13:02:52;100173.52;;;10.86;87.36
12073;BME280;6098;49.004;8.372;2023-04-25T13:17:45;100174.39;;;11.16;85.60
12073;BME280;6098;49.004;8.372;2023-04-25T13:32:38;100175.13;;;11.49;81.87
12073;BME280;6098;49.004;8.372;2023-04-25T13:47:29;100179.83;;;11.62;82.50
12073;BME280;6098;49.004;8.372;2023-04-25T14:02:22;100181.19;;;11.80;76.17
12073;BME280;6098;49.004;8.372;2023-04-25T14:17:16;100172.95;;;12.04;75.09
12073;BME280;6098;49.004;8.372;2023-04-25T14:32:08;100171.83;;;12.18;71.88
12073;BME280;6098;49.004;8.372;2023-04-25T14:47:01;100170.69;;;12.15;71.90
12073;BME280;6098;49.004;8.372;2023-04-25T15:01:53;100185.02;;;12.21;72.48
12073;BME280;6098;49.004;8.372;2023-04-25T15:16:44;100196.20;;;12.00;72.52
12073;BME280;6098;49.004;8.372;2023-04-25T15:31:35;100209.34;;;11.65;75.70
12073;BME280;6098;49.004;8.372;2023-04-25T15:46:24;100225.77;;;11.14;84.00
12073;BME280;6098;49.004;8.372;2023-04-25T16:01:15;100241.47;;;10.89;83.99
12073;BME280;6098;49.004;8.372;2023-04-25T16:16:05;100262.14;;;10.48;82.29
12073;BME280;6098;49.004;8.372;2023-04-25T16:30:55;100283.52;;;9.99;83.16
12073;BME280;6098;49.004;8.372;2023-04-25T16:45:45;100279.72;;;9.94;80.99
12073;BME280;6098;49.004;8.372;2023-04-25T17:00:38;100266.91;;;10.29;80.72
12073;BME280;6098;49.004;8.372;2023-04-25T17:15:31;100288.69;;;10.37;81.35
12073;BME280;6098;49.004;8.372;2023-04-25T17:30:33;100284.95;;;10.31;82.88
12073;BME280;6098;49.004;8.372;2023-04-25T17:45:24;100291.34;;;10.14;82.25
12073;BME280;6098;49.004;8.372;2023-04-25T18:00:18;100294.02;;;10.14;82.41
12073;BME280;6098;49.004;8.372;2023-04-25T18:15:08;100306.58;;;10.07;83.43
12073;BME280;6098;49.004;8.372;2023-04-25T18:30:01;100320.77;;;10.05;85.53
12073;BME280;6098;49.004;8.372;2023-04-25T18:44:51;100352.73;;;10.01;83.71
12073;BME280;6098;49.004;8.372;2023-04-25T18:59:43;100377.33;;;10.03;85.29
12073;BME280;6098;49.004;8.372;2023-04-25T19:14:35;100394.30;;;9.98;86.32
12073;BME280;6098;49.004;8.372;2023-04-25T19:29:28;100407.53;;;9.99;88.54
12073;BME280;6098;49.004;8.372;2023-04-25T19:44:20;100406.98;;;9.90;89.33
12073;BME280;6098;49.004;8.372;2023-04-25T19:59:12;100412.98;;;9.94;89.47
12073;BME280;6098;49.004;8.372;2023-04-25T20:14:03;100430.50;;;9.97;89.74
12073;BME280;6098;49.004;8.372;2023-04-25T20:28:55;100440.72;;;9.96;89.79
12073;BME280;6098;49.004;8.372;2023-04-25T20:43:46;100449.80;;;9.89;89.40
12073;BME280;6098;49.004;8.372;2023-04-25T20:58:40;100450.30;;;9.87;89.17
12073;BME280;6098;49.004;8.372;2023-04-25T21:13:31;100445.77;;;9.79;91.79
12073;BME280;6098;49.004;8.372;2023-04-25T21:28:23;100453.30;;;9.77;92.25
12073;BME280;6098;49.004;8.372;2023-04-25T21:43:16;100469.72;;;9.75;92.48
12073;BME280;6098;49.004;8.372;2023-04-25T21:58:07;100478.58;;;9.73;93.15
12073;BME280;6098;49.004;8.372;2023-04-25T22:13:01;100477.55;;;9.65;94.84
12073;BME280;6098;49.004;8.372;2023-04-25T22:27:54;100489.28;;;9.57;95.54
12073;BME280;6098;49.004;8.372;2023-04-25T22:42:45;100489.66;;;9.46;96.10
12073;BME280;6098;49.004;8.372;2023-04-25T22:57:36;100500.55;;;9.36;96.99
12073;BME280;6098;49.004;8.372;2023-04-25T23:12:33;100501.55;;;9.32;97.59
12073;BME280;6098;49.004;8.372;2023-04-25T23:27:24;100510.48;;;9.29;98.29
12073;BME280;6098;49.004;8.372;2023-04-25T23:42:16;100522.29;;;9.18;98.73
12073;BME280;6098;49.004;8.372;2023-04-25T23:57:06;100535.98;;;9.02;98.57
